Time;durP1;ratioP1;P1;durP2;ratioP2;P2;SDS_P1;SDS_P2;PMS_P1;PMS_P2;Temp;Humidity;BMP_temperature;BMP_pressure;BME280_temperature;BME280_humidity;BME280_pressure;Samples;Min_cycle;Max_cycle;Signal;HPM_P1;HPM_P2
2023/08/15 00:01:40;;;;;;;5.97;2.15;;;;;;;;;;5037722;28;20419;-73
2023/08/15 00:04:10;;;;;;;6.38;2.75;;;;;;;;;;5037964;28;20052;-73
2023/08/15 00:06:44;;;;;;;5.63;2.53;;;;;;;;;;5037635;28;20399;-75
2023/08/15 00:09:15;;;;;;;9.05;2.97;;;;;;;;;;5038657;28;20060;-73
2023/08/15 00:11:46;;;;;;;7.88;3.05;;;;;;;;;;5037990;28;20048;-73
2023/08/15 00:14:16;;;;;;;5.10;2.35;;;;;;;;;;5037712;28;20910;-73
2023/08/15 00:16:46;;;;;;;9.10;2.97;;;;;;;;;;5038015;28;20064;-72
2023/08/15 00:19:17;;;;;;;10.30;2.75;;;;;;;;;;5037502;28;20061;-73
2023/08/15 00:21:48;;;;;;;4.82;2.75;;;;;;;;;;5040734;28;20509;-73
2023/08/15 00:24:18;;;;;;;5.40;2.92;;;;;;;;;;5042722;28;20060;-73
2023/08/15 00:26:49;;;;;;;8.40;3.08;;;;;;;;;;5041805;28;20056;-74
2023/08/15 00:29:20;;;;;;;7.47;2.67;;;;;;;;;;5039622;28;20061;-73
2023/08/15 00:31:51;;;;;;;10.30;2.60;;;;;;;;;;5041132;28;20060;-73
2023/08/15 00:34:21;;;;;;;12.82;2.72;;;;;;;;;;5039764;28;20422;-73
2023/08/15 00:36:51;;;;;;;11.80;3.15;;;;;;;;;;5041885;28;20055;-74
2023/08/15 00:39:23;;;;;;;7.85;2.88;;;;;;;;;;5041958;28;20056;-74
2023/08/15 00:41:53;;;;;;;5.78;3.00;;;;;;;;;;5041549;28;20049;-73
2023/08/15 00:44:24;;;;;;;6.82;2.95;;;;;;;;;;5041080;28;20045;-73
2023/08/15 00:46:58;;;;;;;9.55;3.05;;;;;;;;;;5039336;28;20515;-73
2023/08/15 00:49:30;;;;;;;7.65;2.80;;;;;;;;;;5040975;28;20041;-72
2023/08/15 00:52:01;;;;;;;11.43;3.75;;;;;;;;;;5041045;28;20056;-73
2023/08/15 00:54:34;;;;;;;9.27;3.17;;;;;;;;;;5038917;28;20052;-72
2023/08/15 00:57:10;;;;;;;15.68;3.53;;;;;;;;;;5040171;28;20064;-73
2023/08/15 00:59:45;;;;;;;5.93;3.65;;;;;;;;;;5041322;28;20063;-73
2023/08/15 01:02:17;;;;;;;14.05;5.53;;;;;;;;;;5041539;28;20049;-73
2023/08/15 01:04:49;;;;;;;14.63;5.80;;;;;;;;;;5039093;28;20061;-72
2023/08/15 01:07:20;;;;;;;11.73;4.78;;;;;;;;;;5040545;28;20428;-73
2023/08/15 01:09:50;;;;;;;6.60;3.80;;;;;;;;;;5040905;28;20411;-72
2023/08/15 01:12:51;;;;;;;6.90;3.42;;;;;;;;;;5041320;28;20045;-73
2023/08/15 01:15:26;;;;;;;7.40;3.22;;;;;;;;;;5041157;28;20773;-73
2023/08/15 01:18:13;;;;;;;6.00;3.17;;;;;;;;;;5040835;28;20060;-73
2023/08/15 01:20:44;;;;;;;6.80;3.05;;;;;;;;;;5040690;28;20483;-73
2023/08/15 01:23:16;;;;;;;7.35;3.03;;;;;;;;;;5040924;28;20155;-74
2023/08/15 01:25:50;;;;;;;5.55;2.70;;;;;;;;;;5041165;28;20045;-73
2023/08/15 01:28:21;;;;;;;4.20;2.47;;;;;;;;;;5038259;28;20053;-73
2023/08/15 01:31:03;;;;;;;6.95;2.95;;;;;;;;;;5040691;28;20045;-74
2023/08/15 01:33:41;;;;;;;6.82;4.35;;;;;;;;;;5039200;28;20412;-74
2023/08/15 01:36:25;;;;;;;10.68;6.03;;;;;;;;;;5039931;28;20056;-75
2023/08/15 01:38:59;;;;;;;14.32;6.47;;;;;;;;;;5040192;28;20049;-74
2023/08/15 01:41:35;;;;;;;10.35;5.25;;;;;;;;;;5040700;28;20053;-74
2023/08/15 01:44:11;;;;;;;12.15;5.05;;;;;;;;;;5037287;28;20064;-74
2023/08/15 01:46:46;;;;;;;10.95;4.85;;;;;;;;;;5038678;28;20876;-74
2023/08/15 01:49:18;;;;;;;;;;;;;;;;;;5040804;28;20072;-74
2023/08/15 01:51:49;;;;;;;8.20;4.65;;;;;;;;;;5040483;28;19924;-74
2023/08/15 01:54:19;;;;;;;18.25;8.38;;;;;;;;;;5039683;28;20571;-74
2023/08/15 01:56:51;;;;;;;16.85;6.32;;;;;;;;;;5038731;28;20057;-74
2023/08/15 01:59:22;;;;;;;14.65;4.85;;;;;;;;;;5037999;28;20049;-73
2023/08/15 02:01:52;;;;;;;9.93;5.03;;;;;;;;;;5037602;28;20431;-74
2023/08/15 02:04:23;;;;;;;10.05;5.40;;;;;;;;;;5038033;28;20057;-74
2023/08/15 02:06:54;;;;;;;12.27;4.68;;;;;;;;;;5040525;28;20075;-74
2023/08/15 02:09:27;;;;;;;19.58;5.40;;;;;;;;;;5037359;28;20630;-74
2023/08/15 02:11:57;;;;;;;13.23;5.55;;;;;;;;;;5037558;28;20535;-74
2023/08/15 02:14:27;;;;;;;10.48;4.93;;;;;;;;;;5038440;28;20442;-73
2023/08/15 02:16:57;;;;;;;13.20;4.80;;;;;;;;;;5040207;28;20086;-73
2023/08/15 02:19:28;;;;;;;8.82;4.78;;;;;;;;;;5036757;28;20893;-73
2023/08/15 02:21:59;;;;;;;13.20;5.03;;;;;;;;;;5039459;28;20060;-73
2023/08/15 02:24:29;;;;;;;16.65;5.50;;;;;;;;;;5037095;28;20052;-73
2023/08/15 02:27:00;;;;;;;18.33;4.97;;;;;;;;;;5039606;28;20045;-73
2023/08/15 02:29:30;;;;;;;14.25;3.80;;;;;;;;;;5039830;28;20071;-73
2023/08/15 02:32:00;;;;;;;11.18;3.53;;;;;;;;;;5039393;28;20044;-80
2023/08/15 02:34:30;;;;;;;7.35;3.40;;;;;;;;;;5021711;28;20455;-73
2023/08/15 02:37:01;;;;;;;9.52;3.80;;;;;;;;;;5039012;28;20045;-73
2023/08/15 02:39:31;;;;;;;8.48;3.70;;;;;;;;;;5037073;28;20045;-73
2023/08/15 02:42:02;;;;;;;7.30;3.72;;;;;;;;;;5039042;28;20049;-74
2023/08/15 02:44:33;;;;;;;7.18;3.40;;;;;;;;;;5037318;28;20060;-74
2023/08/15 02:47:03;;;;;;;8.85;3.83;;;;;;;;;;5038935;28;20602;-73
2023/08/15 02:49:34;;;;;;;4.72;3.08;;;;;;;;;;5039483;28;20063;-73
2023/08/15 02:52:06;;;;;;;7.88;3.63;;;;;;;;;;5036823;28;20063;-73
2023/08/15 02:54:37;;;;;;;9.73;3.63;;;;;;;;;;5039462;28;20060;-73
2023/08/15 02:57:08;;;;;;;7.88;3.38;;;;;;;;;;5037068;28;20057;-73
2023/08/15 02:59:37;;;;;;;13.90;3.55;;;;;;;;;;5037249;28;20057;-73
2023/08/15 03:02:09;;;;;;;7.10;3.20;;;;;;;;;;5037581;28;20053;-73
2023/08/15 03:04:40;;;;;;;4.75;2.88;;;;;;;;;;5038057;28;20044;-73
2023/08/15 03:07:11;;;;;;;7.65;3.28;;;;;;;;;;5039418;28;20052;-73
2023/08/15 03:09:41;;;;;;;11.63;3.22;;;;;;;;;;5038975;28;20045;-73
2023/08/15 03:12:11;;;;;;;6.95;2.78;;;;;;;;;;5036230;28;20049;-73
2023/08/15 03:14:43;;;;;;;5.90;2.67;;;;;;;;;;5037356;28;20053;-73
2023/08/15 03:17:14;;;;;;;8.73;2.63;;;;;;;;;;5039333;28;20048;-73
2023/08/15 03:19:45;;;;;;;4.03;2.65;;;;;;;;;;5036952;28;20057;-73
2023/08/15 03:22:15;;;;;;;7.03;3.30;;;;;;;;;;5041450;28;20790;-73
2023/08/15 03:24:45;;;;;;;8.15;3.70;;;;;;;;;;5039235;28;20393;-73
2023/08/15 03:27:16;;;;;;;6.20;3.15;;;;;;;;;;5041560;28;20496;-73
2023/08/15 03:29:48;;;;;;;7.35;3.38;;;;;;;;;;5041442;28;20060;-73
2023/08/15 03:32:20;;;;;;;5.78;3.47;;;;;;;;;;5041537;28;20048;-73
2023/08/15 03:34:50;;;;;;;8.05;4.00;;;;;;;;;;5039904;28;20874;-73
2023/08/15 03:37:22;;;;;;;8.20;3.80;;;;;;;;;;5039210;28;20052;-73
2023/08/15 03:39:52;;;;;;;10.70;4.22;;;;;;;;;;5041062;28;20037;-73
2023/08/15 03:42:24;;;;;;;7.70;5.13;;;;;;;;;;5039996;28;20852;-73
2023/08/15 03:44:55;;;;;;;11.18;5.07;;;;;;;;;;5040540;28;20048;-73
2023/08/15 03:47:25;;;;;;;7.30;3.90;;;;;;;;;;5041241;28;20064;-73
2023/08/15 03:49:59;;;;;;;12.20;4.40;;;;;;;;;;5041157;28;20049;-73
2023/08/15 03:52:32;;;;;;;12.10;3.97;;;;;;;;;;5040663;28;20803;-73
2023/08/15 03:55:03;;;;;;;7.30;3.75;;;;;;;;;;5041567;28;20053;-73
2023/08/15 03:57:35;;;;;;;9.07;4.38;;;;;;;;;;5042610;28;20053;-73
2023/08/15 04:00:09;;;;;;;9.90;3.92;;;;;;;;;;5042802;28;20077;-73
2023/08/15 04:02:42;;;;;;;6.60;4.10;;;;;;;;;;5050542;28;20048;-73
2023/08/15 04:05:13;;;;;;;7.65;3.60;;;;;;;;;;5045006;28;20049;-73
2023/08/15 04:07:44;;;;;;;6.30;3.40;;;;;;;;;;5042867;28;20049;-73
2023/08/15 04:10:16;;;;;;;12.50;3.85;;;;;;;;;;5044917;28;20041;-73
2023/08/15 04:12:47;;;;;;;7.57;3.17;;;;;;;;;;5042958;28;20060;-73
2023/08/15 04:15:19;;;;;;;7.38;3.63;;;;;;;;;;5043137;28;20057;-74
2023/08/15 04:17:51;;;;;;;5.40;2.90;;;;;;;;;;5043387;28;20053;-73
2023/08/15 04:20:22;;;;;;;6.65;2.75;;;;;;;;;;5043063;28;20052;-73
2023/08/15 04:22:53;;;;;;;7.13;3.30;;;;;;;;;;5045012;28;20045;-73
2023/08/15 04:25:26;;;;;;;6.28;3.20;;;;;;;;;;5042768;28;20063;-73
2023/08/15 04:27:59;;;;;;;6.57;3.00;;;;;;;;;;5043211;28;20053;-73
2023/08/15 04:30:31;;;;;;;5.40;3.20;;;;;;;;;;5042933;28;20057;-73
2023/08/15 04:33:02;;;;;;;6.28;2.92;;;;;;;;;;5044781;28;20041;-73
2023/08/15 04:35:34;;;;;;;5.53;2.72;;;;;;;;;;5042938;28;20056;-73
2023/08/15 04:38:05;;;;;;;5.78;2.83;;;;;;;;;;5044141;28;20415;-73
2023/08/15 04:40:40;;;;;;;6.43;2.80;;;;;;;;;;5042495;28;20053;-73
2023/08/15 04:43:11;;;;;;;8.75;3.05;;;;;;;;;;5042881;28;20069;-73
2023/08/15 04:45:46;;;;;;;8.77;3.10;;;;;;;;;;5043030;28;20060;-73
2023/08/15 04:48:16;;;;;;;6.45;3.13;;;;;;;;;;5043730;28;20045;-73
2023/08/15 04:50:46;;;;;;;7.05;3.30;;;;;;;;;;5044314;28;20041;-74
2023/08/15 04:53:16;;;;;;;6.35;2.75;;;;;;;;;;5026395;28;20056;-73
2023/08/15 04:55:48;;;;;;;7.85;3.17;;;;;;;;;;5042249;28;20057;-73
2023/08/15 04:58:19;;;;;;;8.32;3.15;;;;;;;;;;5042069;28;20400;-73
2023/08/15 05:00:49;;;;;;;6.93;2.88;;;;;;;;;;5043231;28;20068;-73
2023/08/15 05:03:20;;;;;;;6.47;3.00;;;;;;;;;;5044015;28;20060;-73
2023/08/15 05:05:49;;;;;;;;;;;;;;;;;;5044218;28;20107;-73
2023/08/15 05:08:19;;;;;;;6.47;2.97;;;;;;;;;;5041346;28;19979;-73
2023/08/15 05:10:50;;;;;;;9.55;3.35;;;;;;;;;;5041636;28;20041;-73
2023/08/15 05:13:20;;;;;;;6.78;3.30;;;;;;;;;;5043221;28;20404;-73
2023/08/15 05:15:52;;;;;;;7.97;3.13;;;;;;;;;;5041655;28;20048;-73
2023/08/15 05:18:23;;;;;;;7.40;2.72;;;;;;;;;;5042500;28;20084;-73
2023/08/15 05:20:53;;;;;;;5.05;2.70;;;;;;;;;;5041286;28;20847;-73
2023/08/15 05:23:23;;;;;;;6.80;2.80;;;;;;;;;;5041763;28;20060;-73
2023/08/15 05:25:53;;;;;;;5.18;2.50;;;;;;;;;;5042288;28;20056;-73
2023/08/15 05:28:24;;;;;;;6.15;2.85;;;;;;;;;;5042071;28;20526;-73
2023/08/15 05:30:53;;;;;;;;;;;;;;;;;;5043775;28;20056;-73
2023/08/15 05:33:24;;;;;;;12.23;3.20;;;;;;;;;;5041723;28;19925;-73
2023/08/15 05:35:54;;;;;;;8.60;3.35;;;;;;;;;;5041532;28;20053;-73
2023/08/15 05:38:25;;;;;;;7.00;2.70;;;;;;;;;;5043161;28;20049;-73
2023/08/15 05:40:55;;;;;;;6.63;3.28;;;;;;;;;;5043358;28;20044;-73
2023/08/15 05:43:25;;;;;;;;;;;;;;;;;;5044196;28;20044;-73
2023/08/15 05:45:55;;;;;;;9.80;3.20;;;;;;;;;;5042770;28;19925;-73
2023/08/15 05:48:25;;;;;;;;;;;;;;;;;;5043185;28;20049;-73
2023/08/15 05:50:55;;;;;;;7.07;2.42;;;;;;;;;;5043278;28;19924;-73
2023/08/15 05:53:26;;;;;;;5.97;3.25;;;;;;;;;;5042704;28;20056;-73
2023/08/15 05:55:55;;;;;;;;;;;;;;;;;;5044856;28;20048;-73
2023/08/15 05:58:25;;;;;;;5.25;3.10;;;;;;;;;;5043389;28;19925;-73
2023/08/15 06:00:56;;;;;;;5.63;2.85;;;;;;;;;;5043271;28;20049;-73
2023/08/15 06:03:28;;;;;;;9.82;3.10;;;;;;;;;;5042637;28;20049;-73
2023/08/15 06:06:21;;;;;;;6.03;2.85;;;;;;;;;;5042235;28;20041;-73
2023/08/15 06:08:51;;;;;;;7.65;3.33;;;;;;;;;;5042680;28;20053;-73
2023/08/15 06:11:22;;;;;;;4.45;2.35;;;;;;;;;;5042145;28;20044;-73
2023/08/15 06:13:52;;;;;;;7.43;3.08;;;;;;;;;;5042519;28;20044;-73
2023/08/15 06:16:24;;;;;;;7.45;3.33;;;;;;;;;;5043078;28;20049;-73
2023/08/15 06:18:54;;;;;;;5.72;3.15;;;;;;;;;;5041882;28;20060;-73
2023/08/15 06:21:24;;;;;;;;;;;;;;;;;;5042199;28;20060;-73
2023/08/15 06:23:55;;;;;;;4.53;2.67;;;;;;;;;;5041857;28;19925;-73
2023/08/15 06:26:25;;;;;;;6.38;3.10;;;;;;;;;;5041734;28;20078;-73
2023/08/15 06:28:55;;;;;;;5.57;2.80;;;;;;;;;;5042783;28;20052;-73
2023/08/15 06:31:26;;;;;;;6.95;2.95;;;;;;;;;;5042727;28;20055;-73
2023/08/15 06:33:58;;;;;;;5.28;3.08;;;;;;;;;;5042500;28;20284;-73
2023/08/15 06:36:31;;;;;;;5.00;2.97;;;;;;;;;;5041842;28;20444;-73
2023/08/15 06:39:03;;;;;;;8.45;3.60;;;;;;;;;;5041752;28;20103;-73
2023/08/15 06:41:34;;;;;;;7.47;3.50;;;;;;;;;;5042544;28;20649;-73
2023/08/15 06:44:05;;;;;;;11.80;3.50;;;;;;;;;;5039689;28;20052;-73
2023/08/15 06:46:36;;;;;;;5.07;2.90;;;;;;;;;;5042506;28;20484;-73
2023/08/15 06:49:06;;;;;;;6.13;3.17;;;;;;;;;;5041671;28;20524;-73
2023/08/15 06:51:36;;;;;;;9.40;3.50;;;;;;;;;;5041582;28;20415;-73
2023/08/15 06:54:08;;;;;;;10.25;2.85;;;;;;;;;;5041418;28;20048;-73
2023/08/15 06:56:40;;;;;;;6.32;2.50;;;;;;;;;;5041664;28;20056;-73
2023/08/15 06:59:10;;;;;;;6.20;2.92;;;;;;;;;;5040992;28;20049;-73
2023/08/15 07:01:40;;;;;;;6.60;2.70;;;;;;;;;;5039953;28;20057;-73
2023/08/15 07:04:11;;;;;;;11.00;3.42;;;;;;;;;;5040281;28;20455;-73
2023/08/15 07:06:41;;;;;;;5.68;3.20;;;;;;;;;;5041562;28;20060;-73
2023/08/15 07:09:12;;;;;;;7.13;3.22;;;;;;;;;;5042160;28;20037;-73
2023/08/15 07:11:42;;;;;;;7.78;3.35;;;;;;;;;;5041145;28;20048;-74
2023/08/15 07:14:13;;;;;;;9.52;3.20;;;;;;;;;;5041276;28;20692;-74
2023/08/15 07:16:46;;;;;;;5.90;3.20;;;;;;;;;;5041766;28;20549;-73
2023/08/15 07:19:16;;;;;;;5.95;2.95;;;;;;;;;;5042277;28;20041;-73
2023/08/15 07:21:47;;;;;;;7.57;3.38;;;;;;;;;;5040026;28;20496;-73
2023/08/15 07:24:17;;;;;;;;;;;;;;;;;;5041794;28;20045;-73
2023/08/15 07:26:47;;;;;;;9.63;3.60;;;;;;;;;;5041177;28;19924;-73
2023/08/15 07:29:18;;;;;;;8.82;4.07;;;;;;;;;;5040261;28;20508;-73
2023/08/15 07:31:48;;;;;;;8.68;3.60;;;;;;;;;;5044047;28;20041;-73
2023/08/15 07:34:24;;;;;;;8.40;4.38;;;;;;;;;;5045915;28;20049;-73
2023/08/15 07:36:54;;;;;;;;;;;;;;;;;;5045914;28;20052;-73
2023/08/15 07:39:24;;;;;;;5.43;3.05;;;;;;;;;;5048201;28;19924;-73
2023/08/15 07:41:55;;;;;;;8.88;3.45;;;;;;;;;;5065241;28;20056;-73
2023/08/15 07:44:27;;;;;;;8.10;4.32;;;;;;;;;;5065299;28;20538;-73
2023/08/15 07:46:57;;;;;;;8.30;3.97;;;;;;;;;;5065324;28;20045;-73
2023/08/15 07:49:27;;;;;;;8.00;3.88;;;;;;;;;;5065354;28;20426;-73
2023/08/15 07:51:57;;;;;;;9.55;3.95;;;;;;;;;;5063671;28;20057;-73
2023/08/15 07:54:27;;;;;;;;;;;;;;;;;;5066360;28;20483;-73
2023/08/15 07:56:58;;;;;;;7.20;3.78;;;;;;;;;;5065585;28;20421;-73
2023/08/15 07:59:29;;;;;;;13.30;3.70;;;;;;;;;;5065177;28;20048;-73
2023/08/15 08:01:59;;;;;;;6.72;3.42;;;;;;;;;;5064538;28;20075;-73
2023/08/15 08:04:30;;;;;;;6.07;3.67;;;;;;;;;;5064739;28;20040;-73
2023/08/15 08:07:00;;;;;;;9.25;4.22;;;;;;;;;;5065429;28;20419;-73
2023/08/15 08:09:32;;;;;;;7.95;3.63;;;;;;;;;;5064794;28;20044;-73
2023/08/15 08:12:03;;;;;;;8.43;3.70;;;;;;;;;;5064636;28;20052;-73
2023/08/15 08:14:32;;;;;;;10.35;3.95;;;;;;;;;;5062777;28;20063;-74
2023/08/15 08:17:10;;;;;;;5.95;3.20;;;;;;;;;;5064806;28;20044;-73
2023/08/15 08:19:41;;;;;;;8.75;3.60;;;;;;;;;;5064440;28;20428;-74
2023/08/15 08:22:12;;;;;;;6.78;3.60;;;;;;;;;;5064728;28;20060;-73
2023/08/15 08:24:41;;;;;;;6.70;3.83;;;;;;;;;;5064915;28;20085;-73
2023/08/15 08:27:12;;;;;;;8.38;3.60;;;;;;;;;;5065360;28;20053;-73
2023/08/15 08:29:44;;;;;;;9.55;4.10;;;;;;;;;;5065385;28;20052;-73
2023/08/15 08:32:15;;;;;;;5.75;3.78;;;;;;;;;;5064832;28;20053;-74
2023/08/15 08:34:44;;;;;;;;;;;;;;;;;;5064838;28;20052;-74
2023/08/15 08:37:15;;;;;;;5.68;3.25;;;;;;;;;;5064289;28;19924;-73
2023/08/15 08:39:46;;;;;;;11.68;3.05;;;;;;;;;;5064675;28;20056;-73
2023/08/15 08:42:16;;;;;;;7.80;3.30;;;;;;;;;;5063776;28;20048;-73
2023/08/15 08:44:48;;;;;;;6.65;3.63;;;;;;;;;;5064544;28;20052;-73
2023/08/15 08:47:21;;;;;;;7.93;3.70;;;;;;;;;;5064272;28;20056;-73
2023/08/15 08:49:53;;;;;;;5.88;3.40;;;;;;;;;;5063371;28;20052;-73
2023/08/15 08:52:26;;;;;;;7.47;3.50;;;;;;;;;;5062710;28;20044;-73
2023/08/15 08:54:57;;;;;;;6.25;3.20;;;;;;;;;;5046092;28;20056;-74
2023/08/15 08:57:29;;;;;;;;;;;;;;;;;;5063194;28;20053;-73
2023/08/15 09:00:07;;;;;;;6.70;2.78;;;;;;;;;;5063666;28;20307;-72
2023/08/15 09:02:39;;;;;;;6.03;3.45;;;;;;;;;;5064002;28;20049;-73
2023/08/15 09:05:11;;;;;;;7.55;3.50;;;;;;;;;;5064158;28;20052;-73
2023/08/15 09:07:42;;;;;;;4.85;3.03;;;;;;;;;;5064253;28;20045;-73
2023/08/15 09:10:13;;;;;;;7.28;3.55;;;;;;;;;;5064252;28;20044;-73
2023/08/15 09:12:47;;;;;;;9.18;3.65;;;;;;;;;;5063752;28;20040;-74
2023/08/15 09:15:17;;;;;;;6.55;3.65;;;;;;;;;;5063238;28;20055;-73
2023/08/15 09:17:47;;;;;;;;;;;;;;;;;;5064305;28;20052;-73
2023/08/15 09:20:18;;;;;;;11.57;3.83;;;;;;;;;;5063116;28;19924;-73
2023/08/15 09:22:50;;;;;;;8.18;4.00;;;;;;;;;;5063638;28;20518;-73
2023/08/15 09:25:20;;;;;;;5.63;3.13;;;;;;;;;;5063706;28;20049;-73
2023/08/15 09:27:50;;;;;;;;;;;;;;;;;;5063577;28;20044;-74
2023/08/15 09:30:22;;;;;;;7.00;3.20;;;;;;;;;;5061420;28;19924;-73
2023/08/15 09:32:55;;;;;;;6.55;3.25;;;;;;;;;;5063502;28;20503;-73
2023/08/15 09:35:26;;;;;;;5.15;3.22;;;;;;;;;;5062699;28;20519;-74
2023/08/15 09:37:56;;;;;;;8.90;3.70;;;;;;;;;;5062689;28;20049;-74
2023/08/15 09:40:28;;;;;;;8.20;3.40;;;;;;;;;;5063305;28;20052;-74
2023/08/15 09:42:58;;;;;;;7.40;3.78;;;;;;;;;;5063230;28;20049;-73
2023/08/15 09:45:30;;;;;;;9.90;3.85;;;;;;;;;;5061645;28;20052;-74
2023/08/15 09:48:00;;;;;;;10.45;3.67;;;;;;;;;;5063084;28;20047;-73
2023/08/15 09:50:31;;;;;;;16.98;5.68;;;;;;;;;;5062755;28;20043;-75
2023/08/15 09:53:03;;;;;;;10.68;4.82;;;;;;;;;;5062376;28;20044;-73
2023/08/15 09:55:36;;;;;;;13.52;4.57;;;;;;;;;;5044996;28;20048;-74
2023/08/15 09:58:07;;;;;;;15.95;4.18;;;;;;;;;;5062524;28;20412;-73
2023/08/15 10:00:39;;;;;;;14.63;4.70;;;;;;;;;;5060429;28;20060;-77
2023/08/15 10:03:37;;;;;;;10.95;4.50;;;;;;;;;;5062949;28;20048;-74
2023/08/15 10:06:10;;;;;;;17.17;5.03;;;;;;;;;;5062525;28;20091;-73
2023/08/15 10:08:45;;;;;;;7.82;4.15;;;;;;;;;;5061844;28;20049;-74
2023/08/15 10:11:17;;;;;;;10.57;5.38;;;;;;;;;;5062054;28;20049;-73
2023/08/15 10:13:53;;;;;;;6.47;4.35;;;;;;;;;;5062961;28;20048;-74
2023/08/15 10:16:26;;;;;;;13.60;4.45;;;;;;;;;;5060672;28;20045;-73
2023/08/15 10:18:59;;;;;;;9.73;4.65;;;;;;;;;;5062242;28;20545;-74
2023/08/15 10:22:02;;;;;;;7.90;3.60;;;;;;;;;;5062759;28;20539;-74
2023/08/15 10:24:33;;;;;;;8.65;4.63;;;;;;;;;;5055018;28;20056;-77
2023/08/15 10:27:06;;;;;;;11.90;4.63;;;;;;;;;;5061890;28;20534;-73
2023/08/15 10:30:03;;;;;;;9.23;5.00;;;;;;;;;;5061781;28;20048;-74
2023/08/15 10:32:35;;;;;;;8.95;4.60;;;;;;;;;;5061891;28;20048;-74
2023/08/15 10:35:07;;;;;;;9.93;5.03;;;;;;;;;;5061941;28;20067;-73
2023/08/15 10:37:41;;;;;;;9.07;4.13;;;;;;;;;;5061782;28;20047;-73
2023/08/15 10:40:16;;;;;;;10.25;5.07;;;;;;;;;;5061223;28;20489;-74
2023/08/15 10:43:00;;;;;;;11.70;5.25;;;;;;;;;;5061888;28;20897;-73
2023/08/15 10:45:52;;;;;;;10.35;5.63;;;;;;;;;;5061636;28;20052;-74
2023/08/15 10:48:47;;;;;;;11.02;6.13;;;;;;;;;;5061365;28;20049;-74
2023/08/15 10:51:22;;;;;;;10.30;5.95;;;;;;;;;;5062883;28;20419;-73
2023/08/15 10:53:58;;;;;;;10.50;6.13;;;;;;;;;;5062097;28;20047;-77
2023/08/15 10:56:35;;;;;;;9.55;5.55;;;;;;;;;;5061636;28;20075;-75
2023/08/15 10:59:14;;;;;;;24.33;13.27;;;;;;;;;;5060558;28;20052;-75
2023/08/15 11:01:47;;;;;;;15.45;9.60;;;;;;;;;;5061737;28;20048;-75
2023/08/15 11:04:22;;;;;;;16.90;8.88;;;;;;;;;;5061415;28;20048;-74
2023/08/15 11:06:53;;;;;;;13.32;7.25;;;;;;;;;;5059941;28;20041;-75
2023/08/15 11:09:30;;;;;;;12.82;7.43;;;;;;;;;;5059613;28;20419;-73
2023/08/15 11:12:08;;;;;;;12.40;7.30;;;;;;;;;;5061734;28;20051;-74
2023/08/15 11:14:39;;;;;;;14.75;7.15;;;;;;;;;;5061586;28;20052;-74
2023/08/15 11:17:13;;;;;;;17.30;9.05;;;;;;;;;;5061134;28;20044;-75
2023/08/15 11:19:44;;;;;;;21.85;8.38;;;;;;;;;;5061352;28;20075;-74
2023/08/15 11:22:16;;;;;;;20.20;8.57;;;;;;;;;;5061970;28;20060;-74
2023/08/15 11:24:51;;;;;;;19.88;7.25;;;;;;;;;;5061693;28;20053;-74
2023/08/15 11:27:22;;;;;;;11.95;6.18;;;;;;;;;;5060211;28;20052;-74
2023/08/15 11:29:59;;;;;;;19.92;6.75;;;;;;;;;;5060015;28;20507;-74
2023/08/15 11:32:29;;;;;;;20.25;5.55;;;;;;;;;;5061367;28;20044;-73
2023/08/15 11:35:01;;;;;;;17.38;5.35;;;;;;;;;;5060172;28;20049;-75
2023/08/15 11:37:35;;;;;;;12.55;4.97;;;;;;;;;;5060353;28;20052;-75
2023/08/15 11:40:06;;;;;;;10.07;4.43;;;;;;;;;;5062033;28;20049;-75
2023/08/15 11:42:38;;;;;;;18.95;4.90;;;;;;;;;;5061186;28;20052;-75
2023/08/15 11:45:11;;;;;;;11.57;5.13;;;;;;;;;;5061021;28;20053;-75
2023/08/15 11:47:57;;;;;;;11.18;5.00;;;;;;;;;;5059062;28;20777;-74
2023/08/15 11:50:30;;;;;;;16.98;6.75;;;;;;;;;;5061007;28;20040;-73
2023/08/15 11:53:17;;;;;;;13.85;5.68;;;;;;;;;;5060819;28;20492;-73
2023/08/15 11:55:48;;;;;;;12.68;5.07;;;;;;;;;;5061476;28;20045;-74
2023/08/15 11:58:29;;;;;;;8.95;4.90;;;;;;;;;;5061545;28;20091;-74
2023/08/15 12:01:07;;;;;;;11.35;5.80;;;;;;;;;;5061033;28;20056;-78
2023/08/15 12:03:39;;;;;;;8.45;4.80;;;;;;;;;;5060339;28;20431;-75
2023/08/15 12:06:13;;;;;;;17.60;6.43;;;;;;;;;;5060088;28;20040;-76
2023/08/15 12:08:45;;;;;;;11.00;4.35;;;;;;;;;;5061507;28;20048;-78
2023/08/15 12:11:21;;;;;;;10.13;4.93;;;;;;;;;;5060789;28;20049;-76
2023/08/15 12:13:51;;;;;;;10.02;4.72;;;;;;;;;;5060992;28;20503;-74
2023/08/15 12:16:21;;;;;;;8.15;5.32;;;;;;;;;;5060941;28;20052;-78
2023/08/15 12:18:52;;;;;;;10.70;5.60;;;;;;;;;;5063392;28;20411;-74
2023/08/15 12:21:24;;;;;;;11.93;5.68;;;;;;;;;;5064266;28;20055;-75
2023/08/15 12:23:54;;;;;;;8.80;4.93;;;;;;;;;;5064632;28;20052;-75
2023/08/15 12:26:25;;;;;;;8.13;5.45;;;;;;;;;;5064882;28;20048;-76
2023/08/15 12:28:57;;;;;;;12.25;5.45;;;;;;;;;;5064485;28;20050;-76
2023/08/15 12:31:28;;;;;;;12.27;6.60;;;;;;;;;;5065012;28;20048;-74
2023/08/15 12:33:58;;;;;;;11.13;6.90;;;;;;;;;;5064335;28;20043;-74
2023/08/15 12:36:28;;;;;;;11.43;7.30;;;;;;;;;;5064225;28;20055;-74
2023/08/15 12:38:59;;;;;;;16.65;6.15;;;;;;;;;;5063986;28;20045;-74
2023/08/15 12:41:30;;;;;;;9.80;6.25;;;;;;;;;;5064866;28;20823;-75
2023/08/15 12:44:00;;;;;;;14.80;7.00;;;;;;;;;;5064254;28;20491;-75
2023/08/15 12:46:31;;;;;;;15.05;8.18;;;;;;;;;;5064179;28;20049;-76
2023/08/15 12:49:02;;;;;;;12.60;7.30;;;;;;;;;;5062869;28;20060;-75
2023/08/15 12:51:33;;;;;;;8.85;5.90;;;;;;;;;;5063844;28;20075;-77
2023/08/15 12:54:04;;;;;;;11.40;5.95;;;;;;;;;;5064710;28;20052;-74
2023/08/15 12:56:34;;;;;;;10.15;6.53;;;;;;;;;;5064503;28;20056;-75
2023/08/15 12:59:06;;;;;;;13.15;6.45;;;;;;;;;;5064596;28;20048;-75
2023/08/15 13:01:37;;;;;;;10.30;6.30;;;;;;;;;;5062822;28;20931;-75
2023/08/15 13:04:12;;;;;;;20.08;6.60;;;;;;;;;;5063000;28;20055;-74
2023/08/15 13:06:42;;;;;;;11.63;6.78;;;;;;;;;;5062557;28;20542;-75
2023/08/15 13:09:12;;;;;;;9.85;7.00;;;;;;;;;;5062362;28;20427;-75
2023/08/15 13:11:44;;;;;;;15.18;7.03;;;;;;;;;;5063885;28;20044;-75
2023/08/15 13:14:15;;;;;;;11.88;5.78;;;;;;;;;;5063505;28;20041;-75
2023/08/15 13:16:48;;;;;;;11.32;6.00;;;;;;;;;;5061835;28;20052;-78
2023/08/15 13:19:18;;;;;;;11.18;5.57;;;;;;;;;;5063676;28;20052;-76
2023/08/15 13:21:49;;;;;;;11.40;5.40;;;;;;;;;;5062825;28;20519;-75
2023/08/15 13:24:21;;;;;;;10.30;5.68;;;;;;;;;;5063320;28;20052;-75
2023/08/15 13:26:52;;;;;;;12.07;6.07;;;;;;;;;;5062817;28;20498;-75
2023/08/15 13:29:22;;;;;;;14.85;6.10;;;;;;;;;;5062959;28;20053;-75
2023/08/15 13:31:53;;;;;;;11.82;5.75;;;;;;;;;;5063927;28;20403;-76
2023/08/15 13:34:25;;;;;;;8.65;5.40;;;;;;;;;;5062902;28;20052;-75
2023/08/15 13:36:55;;;;;;;14.60;6.07;;;;;;;;;;5062310;28;20049;-76
2023/08/15 13:39:26;;;;;;;8.52;6.38;;;;;;;;;;5061222;28;20526;-74
2023/08/15 13:41:59;;;;;;;11.82;5.72;;;;;;;;;;5062853;28;20057;-75
2023/08/15 13:44:29;;;;;;;8.95;5.78;;;;;;;;;;5062543;28;20061;-79
2023/08/15 13:47:00;;;;;;;9.90;5.75;;;;;;;;;;5063031;28;20059;-76
2023/08/15 13:49:30;;;;;;;9.85;5.35;;;;;;;;;;5062221;28;20048;-77
2023/08/15 13:52:03;;;;;;;12.60;5.88;;;;;;;;;;5062784;28;20055;-75
2023/08/15 13:54:34;;;;;;;8.75;5.72;;;;;;;;;;5063064;28;20605;-75
2023/08/15 13:57:05;;;;;;;10.77;5.88;;;;;;;;;;5063044;28;20044;-76
2023/08/15 13:59:35;;;;;;;7.95;5.43;;;;;;;;;;5063150;28;20057;-76
2023/08/15 14:02:07;;;;;;;11.93;5.88;;;;;;;;;;5061382;28;20107;-76
2023/08/15 14:04:40;;;;;;;9.43;6.00;;;;;;;;;;5061234;28;20108;-76
2023/08/15 14:07:10;;;;;;;12.70;6.82;;;;;;;;;;5062730;28;20052;-75
2023/08/15 14:09:41;;;;;;;10.25;5.72;;;;;;;;;;5061200;28;20511;-75
2023/08/15 14:12:12;;;;;;;10.13;6.20;;;;;;;;;;5060560;28;20056;-75
2023/08/15 14:14:43;;;;;;;10.32;5.90;;;;;;;;;;5063132;28;20059;-76
2023/08/15 14:17:14;;;;;;;12.10;5.65;;;;;;;;;;5062955;28;20074;-76
2023/08/15 14:19:44;;;;;;;11.75;5.53;;;;;;;;;;5063059;28;20063;-75
2023/08/15 14:22:15;;;;;;;12.35;6.15;;;;;;;;;;5062438;28;20051;-76
2023/08/15 14:24:48;;;;;;;10.23;5.38;;;;;;;;;;5062260;28;20519;-75
2023/08/15 14:27:19;;;;;;;10.35;5.20;;;;;;;;;;5062193;28;20519;-76
2023/08/15 14:29:51;;;;;;;7.50;4.65;;;;;;;;;;5060626;28;20044;-75
2023/08/15 14:32:22;;;;;;;11.80;5.55;;;;;;;;;;5044128;28;20048;-75
2023/08/15 14:34:54;;;;;;;10.32;5.53;;;;;;;;;;5062190;28;20044;-75
2023/08/15 14:37:25;;;;;;;6.72;4.93;;;;;;;;;;5062258;28;20052;-75
2023/08/15 14:39:55;;;;;;;9.70;5.55;;;;;;;;;;5061560;28;20492;-82
2023/08/15 14:42:27;;;;;;;10.75;5.53;;;;;;;;;;5061733;28;20045;-77
2023/08/15 14:44:58;;;;;;;9.98;5.53;;;;;;;;;;5061702;28;20052;-76
2023/08/15 14:47:32;;;;;;;12.32;5.78;;;;;;;;;;5061936;28;20051;-75
2023/08/15 14:50:03;;;;;;;8.75;4.93;;;;;;;;;;5062191;28;20048;-76
2023/08/15 14:52:36;;;;;;;10.60;5.38;;;;;;;;;;5062204;28;20036;-75
2023/08/15 14:55:08;;;;;;;7.57;5.28;;;;;;;;;;5061776;28;20526;-75
2023/08/15 14:57:43;;;;;;;10.48;5.82;;;;;;;;;;5060308;28;20415;-75
2023/08/15 15:00:14;;;;;;;8.82;5.30;;;;;;;;;;5060881;28;20534;-74
2023/08/15 15:02:45;;;;;;;11.13;5.38;;;;;;;;;;5061772;28;20067;-74
2023/08/15 15:05:17;;;;;;;11.52;4.75;;;;;;;;;;5061352;28;20036;-78
2023/08/15 15:07:47;;;;;;;10.05;5.05;;;;;;;;;;5061491;28;20044;-75
2023/08/15 15:10:17;;;;;;;12.23;5.13;;;;;;;;;;5060423;28;20613;-80
2023/08/15 15:12:49;;;;;;;7.53;4.45;;;;;;;;;;5061467;28;20375;-77